Terminal Aerodrome Forecast
Issued by NWS

Home | Current Version | Previous Version | Text Only | Print | Product List | Glossary Off
Versions: 1 2 3 4 5 6 7 8 9 10 11 12 13 14 15 16 17 18 19 20 21 22 23 24 25 26 27 28 29 30 31 32 33 34 35 36 37 38

000
FTUS43 KGRB 171734
TAFATW
TAF
KATW 171734Z 1718/1818 24015G26KT 6SM BLSN BKN200 WS020/28050KT
     FM180000 24015G23KT P6SM SKC WS018/28055KT
     FM180700 25010KT P6SM SKC
     FM181500 24011G18KT P6SM FEW018 BKN200=

USA.gov is the U.S. government's official web portal to all federal, state and local government web resources and services.